New Truxton, Missouri
Current Conditions -  °F | °C
As of 1:15 PM on Saturday 20 Dec 2014 (Local Time) from KFYG Reporting Station
Overcast Overcast  
Wind Chill: 41°   Ceiling: 3000
Heat Index: 41°   Visibility: 10mi
Dew Point: 36°   Wind: 0mph
Humidity: 81%   Direction: NA
Pressure: 30.21"   Gusts: NA
Location:  38.9675°N, 91.211°W
Report Text: KFYG 201915Z AUTO 00000KT 10SM OVC030 05/02 A3021 RMK AO2
Loading
Personal Weather Stations






























Interactive Weather Map New forecast layout! Learn more

10-Day Weather Forecast

Advertisements
Track Severe Weather on mobile